Nearby METARS Reports

 

LFML - Marseille/Marign, France
Distance from station: O 47km
Mise à jour: 24/07/2019 09:00
clair
clair
 Wind from varies
Vent: varies 4 km/h
Température: 28°C
Heat Index: 29°C
Point de rosée: 19°C
Humidité: 58%
Baromètre: 1017 hPa
Résumé: clair
Visibility: greater than 10 km
2019/07/24 07:00 LFML 240700Z AUTO VRB02KT CAVOK 28/19 Q1017 NOSIG
LFMC - Le Luc/Le Cannet, France
Distance from station: ESE 48km
Mise à jour: 24/07/2019 09:00

 Wind from varies
Vent: varies 2 km/h
Température: 28°C
Heat Index: 29°C
Point de rosée: 18°C
Humidité: 55%
Baromètre: 1017 hPa
Visibility: 10 km
2019/07/24 07:00 LFMC 240700Z AUTO VRB01KT 9999 ////// 28/18 Q1017
LFTH - Hyeres/Le Palyve, France
Distance from station: SSE 53km
Mise à jour: 24/07/2019 09:00
clair
clair
 Wind from varies
Vent: varies 2 km/h
Température: 29°C
Heat Index: 30°C
Point de rosée: 19°C
Humidité: 55%
Baromètre: 1016 hPa
Résumé: clair
Visibility: greater than 10 km
2019/07/24 07:00 LFTH 240700Z AUTO VRB01KT CAVOK 29/19 Q1016 NOSIG
 
LFMY - Salon (fafb), France
Distance from station: O 59km
Mise à jour: 24/07/2019 09:00
clair
clair
 Wind from calm
Vent: calme
Température: 28°C
Heat Index: 29°C
Point de rosée: 19°C
Humidité: 58%
Baromètre: 1017 hPa
Résumé: clair
Visibility: greater than 10 km
2019/07/24 07:00 LFMY 240700Z AUTO 00000KT CAVOK 28/19 Q1017 NOSIG
LFMI - Istres/Le Tube F, France
Distance from station: O 71km
Mise à jour: 24/07/2019 09:00
clair
clair
 Wind from NNO
Vent: NNO 9 km/h
Température: 28°C
Heat Index: 28°C
Point de rosée: 17°C
Humidité: 51%
Baromètre: 1016 hPa
Résumé: clair
Visibility: greater than 10 km
2019/07/24 07:00 LFMI 240700Z AUTO 34005KT 300V010 CAVOK 28/17 Q1016 NOSIG